sensor_id;sensor_type;location;lat;lon;timestamp;pressure;altitude;pressure_sealevel;temperature;humidity
75697;BME280;64312;44.738;20.612;2023-04-24T00:02:23;99735.41;;;13.80;65.87
75697;BME280;64312;44.738;20.612;2023-04-24T00:04:49;99668.78;;;13.31;66.47
75697;BME280;64312;44.738;20.612;2023-04-24T00:07:15;99505.19;;;12.36;67.02
75697;BME280;64312;44.738;20.612;2023-04-24T00:09:42;99738.41;;;13.72;67.88
75697;BME280;64312;44.738;20.612;2023-04-24T00:12:09;99436.84;;;11.81;66.73
75697;BME280;64312;44.738;20.612;2023-04-24T00:14:35;99622.94;;;12.99;67.16
75697;BME280;64312;44.738;20.612;2023-04-24T00:17:01;99600.50;;;12.80;67.13
75697;BME280;64312;44.738;20.612;2023-04-24T00:19:28;99642.78;;;13.11;67.39
75697;BME280;64312;44.738;20.612;2023-04-24T00:21:54;99472.25;;;12.09;66.97
75697;BME280;64312;44.738;20.612;2023-04-24T00:24:20;99728.63;;;13.71;67.21
75697;BME280;64312;44.738;20.612;2023-04-24T00:26:46;99664.28;;;13.24;65.28
75697;BME280;64312;44.738;20.612;2023-04-24T00:29:12;99694.41;;;13.46;64.40
75697;BME280;64312;44.738;20.612;2023-04-24T00:31:37;99682.47;;;13.36;63.45
75697;BME280;64312;44.738;20.612;2023-04-24T00:34:03;99752.53;;;13.74;62.49
75697;BME280;64312;44.738;20.612;2023-04-24T00:36:30;99731.41;;;13.82;63.48
75697;BME280;64312;44.738;20.612;2023-04-24T00:38:56;99705.88;;;13.78;64.27
75697;BME280;64312;44.738;20.612;2023-04-24T00:41:24;99708.03;;;13.70;66.04
75697;BME280;64312;44.738;20.612;2023-04-24T00:43:51;99703.56;;;13.94;65.90
75697;BME280;64312;44.738;20.612;2023-04-24T00:46:17;99689.63;;;13.78;67.37
75697;BME280;64312;44.738;20.612;2023-04-24T00:48:43;99664.84;;;13.63;67.67
75697;BME280;64312;44.738;20.612;2023-04-24T00:51:09;99533.78;;;12.81;67.44
75697;BME280;64312;44.738;20.612;2023-04-24T00:53:35;99717.34;;;13.92;67.00
75697;BME280;64312;44.738;20.612;2023-04-24T00:56:01;99680.56;;;13.54;67.25
75697;BME280;64312;44.738;20.612;2023-04-24T00:58:28;99507.25;;;12.59;66.86
75697;BME280;64312;44.738;20.612;2023-04-24T01:00:54;99727.09;;;13.93;65.14
75697;BME280;64312;44.738;20.612;2023-04-24T01:03:22;99758.44;;;13.82;66.05
75697;BME280;64312;44.738;20.612;2023-04-24T01:05:49;99714.00;;;13.60;65.46
75697;BME280;64312;44.738;20.612;2023-04-24T01:08:14;99718.34;;;13.61;66.29
75697;BME280;64312;44.738;20.612;2023-04-24T01:10:41;99745.41;;;13.79;66.11
75697;BME280;64312;44.738;20.612;2023-04-24T01:13:10;99723.00;;;13.72;64.25
75697;BME280;64312;44.738;20.612;2023-04-24T01:15:36;99681.16;;;13.38;64.24
75697;BME280;64312;44.738;20.612;2023-04-24T01:18:02;99602.53;;;13.03;63.50
75697;BME280;64312;44.738;20.612;2023-04-24T01:20:28;99740.03;;;13.91;64.08
75697;BME280;64312;44.738;20.612;2023-04-24T01:22:55;99739.91;;;13.86;64.68
75697;BME280;64312;44.738;20.612;2023-04-24T01:25:23;99473.88;;;12.35;65.38
75697;BME280;64312;44.738;20.612;2023-04-24T01:27:50;99736.81;;;13.82;66.04
75697;BME280;64312;44.738;20.612;2023-04-24T01:30:16;99696.47;;;13.63;66.49
75697;BME280;64312;44.738;20.612;2023-04-24T01:32:42;99701.66;;;13.64;66.57
75697;BME280;64312;44.738;20.612;2023-04-24T01:35:11;99691.22;;;13.49;67.32
75697;BME280;64312;44.738;20.612;2023-04-24T01:37:37;99716.16;;;13.70;67.64
75697;BME280;64312;44.738;20.612;2023-04-24T01:40:06;99650.75;;;13.24;67.72
75697;BME280;64312;44.738;20.612;2023-04-24T01:42:33;99752.47;;;13.62;68.39
75697;BME280;64312;44.738;20.612;2023-04-24T01:45:02;99659.50;;;13.20;68.19
75697;BME280;64312;44.738;20.612;2023-04-24T01:47:30;99722.56;;;13.57;68.41
75697;BME280;64312;44.738;20.612;2023-04-24T01:49:56;99728.66;;;13.52;68.40
75697;BME280;64312;44.738;20.612;2023-04-24T01:52:22;99643.91;;;13.04;68.14
75697;BME280;64312;44.738;20.612;2023-04-24T01:54:48;99639.31;;;13.04;68.42
75697;BME280;64312;44.738;20.612;2023-04-24T01:57:14;99714.97;;;13.47;68.82
75697;BME280;64312;44.738;20.612;2023-04-24T01:59:40;99444.28;;;11.85;68.71
75697;BME280;64312;44.738;20.612;2023-04-24T02:02:07;99704.59;;;13.44;69.40
75697;BME280;64312;44.738;20.612;2023-04-24T02:04:34;99744.56;;;13.42;69.08
75697;BME280;64312;44.738;20.612;2023-04-24T02:07:01;99652.75;;;12.92;69.23
75697;BME280;64312;44.738;20.612;2023-04-24T02:09:26;99492.44;;;12.07;69.14
75697;BME280;64312;44.738;20.612;2023-04-24T02:11:52;99459.44;;;11.80;69.39
75697;BME280;64312;44.738;20.612;2023-04-24T02:14:17;99699.34;;;13.31;69.20
75697;BME280;64312;44.738;20.612;2023-04-24T02:16:43;99449.91;;;11.77;69.67
75697;BME280;64312;44.738;20.612;2023-04-24T02:19:09;99667.56;;;13.08;69.06
75697;BME280;64312;44.738;20.612;2023-04-24T02:21:36;99678.72;;;13.12;69.15
75697;BME280;64312;44.738;20.612;2023-04-24T02:24:01;99695.66;;;13.25;69.26
75697;BME280;64312;44.738;20.612;2023-04-24T02:26:27;99689.47;;;13.18;69.22
75697;BME280;64312;44.738;20.612;2023-04-24T02:28:53;99664.63;;;13.10;69.37
75697;BME280;64312;44.738;20.612;2023-04-24T02:31:20;99654.47;;;13.05;69.23
75697;BME280;64312;44.738;20.612;2023-04-24T02:33:47;99609.22;;;12.82;69.99
75697;BME280;64312;44.738;20.612;2023-04-24T02:36:13;99637.00;;;13.08;70.21
75697;BME280;64312;44.738;20.612;2023-04-24T02:38:39;99591.41;;;12.74;69.91
75697;BME280;64312;44.738;20.612;2023-04-24T02:41:05;99656.16;;;13.24;70.11
75697;BME280;64312;44.738;20.612;2023-04-24T02:43:32;99597.53;;;12.88;69.80
75697;BME280;64312;44.738;20.612;2023-04-24T02:45:58;99626.19;;;12.89;70.44
75697;BME280;64312;44.738;20.612;2023-04-24T02:48:24;99651.41;;;13.20;70.40
75697;BME280;64312;44.738;20.612;2023-04-24T02:50:50;99636.16;;;13.07;70.34
75697;BME280;64312;44.738;20.612;2023-04-24T02:53:16;99391.78;;;11.63;69.91
75697;BME280;64312;44.738;20.612;2023-04-24T02:55:42;99532.22;;;12.55;69.85
75697;BME280;64312;44.738;20.612;2023-04-24T02:58:08;99631.28;;;13.16;70.65
75697;BME280;64312;44.738;20.612;2023-04-24T03:00:34;99618.16;;;13.01;69.61
75697;BME280;64312;44.738;20.612;2023-04-24T03:02:59;99563.72;;;12.61;68.46
75697;BME280;64312;44.738;20.612;2023-04-24T03:05:25;99666.09;;;13.06;67.98
75697;BME280;64312;44.738;20.612;2023-04-24T03:07:52;99686.75;;;13.00;68.49
75697;BME280;64312;44.738;20.612;2023-04-24T03:10:20;99601.53;;;12.61;68.05
75697;BME280;64312;44.738;20.612;2023-04-24T03:12:48;99657.38;;;12.85;67.83
75697;BME280;64312;44.738;20.612;2023-04-24T03:15:13;99398.31;;;11.24;67.99
75697;BME280;64312;44.738;20.612;2023-04-24T03:17:39;99612.03;;;12.51;67.42
75697;BME280;64312;44.738;20.612;2023-04-24T03:20:05;99390.28;;;11.17;68.44
75697;BME280;64312;44.738;20.612;2023-04-24T03:22:31;99611.22;;;12.68;67.23
75697;BME280;64312;44.738;20.612;2023-04-24T03:24:59;99647.72;;;12.96;68.11
75697;BME280;64312;44.738;20.612;2023-04-24T03:27:25;99649.75;;;13.00;68.61
75697;BME280;64312;44.738;20.612;2023-04-24T03:29:56;99652.25;;;13.02;68.42
75697;BME280;64312;44.738;20.612;2023-04-24T03:32:38;99601.91;;;12.64;67.41
75697;BME280;64312;44.738;20.612;2023-04-24T03:35:08;99612.66;;;12.71;67.24
75697;BME280;64312;44.738;20.612;2023-04-24T03:37:34;99661.41;;;13.01;67.39
75697;BME280;64312;44.738;20.612;2023-04-24T03:40:32;99615.53;;;12.76;67.73
75697;BME280;64312;44.738;20.612;2023-04-24T03:43:00;99545.75;;;12.30;67.18
75697;BME280;64312;44.738;20.612;2023-04-24T03:45:25;99624.50;;;12.70;67.16
75697;BME280;64312;44.738;20.612;2023-04-24T03:47:51;99613.97;;;12.62;67.75
75697;BME280;64312;44.738;20.612;2023-04-24T03:50:17;99654.31;;;12.82;67.72
75697;BME280;64312;44.738;20.612;2023-04-24T03:52:43;99632.84;;;12.87;68.21
75697;BME280;64312;44.738;20.612;2023-04-24T03:55:11;99628.25;;;12.87;68.27
75697;BME280;64312;44.738;20.612;2023-04-24T03:57:42;99615.88;;;12.80;68.56
75697;BME280;64312;44.738;20.612;2023-04-24T04:00:17;99638.94;;;13.00;68.60
75697;BME280;64312;44.738;20.612;2023-04-24T04:02:50;99659.00;;;13.11;68.91
75697;BME280;64312;44.738;20.612;2023-04-24T04:05:15;99660.16;;;13.22;67.75
75697;BME280;64312;44.738;20.612;2023-04-24T04:07:41;99696.72;;;13.24;68.35
75697;BME280;64312;44.738;20.612;2023-04-24T04:10:07;99599.16;;;12.89;67.95
75697;BME280;64312;44.738;20.612;2023-04-24T04:12:35;99665.25;;;13.30;67.58
75697;BME280;64312;44.738;20.612;2023-04-24T04:15:02;99669.16;;;13.34;67.65
75697;BME280;64312;44.738;20.612;2023-04-24T04:17:27;99673.69;;;13.40;67.49
75697;BME280;64312;44.738;20.612;2023-04-24T04:19:53;99561.28;;;12.78;67.58
75697;BME280;64312;44.738;20.612;2023-04-24T04:22:19;99620.09;;;13.12;67.42
75697;BME280;64312;44.738;20.612;2023-04-24T04:24:48;99273.47;;;11.11;67.06
75697;BME280;64312;44.738;20.612;2023-04-24T04:27:19;99654.13;;;13.38;66.71
75697;BME280;64312;44.738;20.612;2023-04-24T04:29:58;99670.63;;;13.67;65.82
75697;BME280;64312;44.738;20.612;2023-04-24T04:32:32;99548.19;;;12.93;65.81
75697;BME280;64312;44.738;20.612;2023-04-24T04:35:03;99619.53;;;13.47;65.46
75697;BME280;64312;44.738;20.612;2023-04-24T04:37:33;99433.94;;;12.44;65.05
75697;BME280;64312;44.738;20.612;2023-04-24T04:40:14;99641.03;;;13.72;65.31
75697;BME280;64312;44.738;20.612;2023-04-24T04:42:50;99638.34;;;13.72;65.64
75697;BME280;64312;44.738;20.612;2023-04-24T04:45:19;99654.59;;;13.83;64.87
75697;BME280;64312;44.738;20.612;2023-04-24T04:48:06;99692.84;;;14.17;64.68
75697;BME280;64312;44.738;20.612;2023-04-24T04:50:34;99666.28;;;13.96;64.22
75697;BME280;64312;44.738;20.612;2023-04-24T04:53:05;99648.16;;;13.96;64.64
75697;BME280;64312;44.738;20.612;2023-04-24T04:55:34;99431.22;;;12.62;64.96
75697;BME280;64312;44.738;20.612;2023-04-24T04:58:09;99709.31;;;14.16;64.49
75697;BME280;64312;44.738;20.612;2023-04-24T05:00:36;99709.91;;;14.18;65.25
75697;BME280;64312;44.738;20.612;2023-04-24T05:03:11;99657.72;;;13.99;64.91
75697;BME280;64312;44.738;20.612;2023-04-24T05:05:37;99610.81;;;13.75;65.41
75697;BME280;64312;44.738;20.612;2023-04-24T05:08:07;99627.44;;;13.90;65.72
75697;BME280;64312;44.738;20.612;2023-04-24T05:10:34;99566.16;;;13.54;65.97
75697;BME280;64312;44.738;20.612;2023-04-24T05:13:03;99588.09;;;13.76;65.62
75697;BME280;64312;44.738;20.612;2023-04-24T05:15:29;99684.44;;;14.37;65.53
75697;BME280;64312;44.738;20.612;2023-04-24T05:17:56;99671.09;;;14.35;65.55
75697;BME280;64312;44.738;20.612;2023-04-24T05:20:22;99525.22;;;13.50;64.30
75697;BME280;64312;44.738;20.612;2023-04-24T05:22:48;99715.34;;;14.59;63.89
75697;BME280;64312;44.738;20.612;2023-04-24T05:25:14;99534.50;;;13.43;63.12
75697;BME280;64312;44.738;20.612;2023-04-24T05:27:46;99730.34;;;14.44;64.26
75697;BME280;64312;44.738;20.612;2023-04-24T05:30:14;99523.81;;;12.99;64.33
75697;BME280;64312;44.738;20.612;2023-04-24T05:32:40;99732.69;;;14.10;64.53
75697;BME280;64312;44.738;20.612;2023-04-24T05:35:06;99737.28;;;14.09;65.32
75697;BME280;64312;44.738;20.612;2023-04-24T05:37:33;99649.25;;;13.47;66.03
75697;BME280;64312;44.738;20.612;2023-04-24T05:39:59;99782.78;;;14.19;66.06
75697;BME280;64312;44.738;20.612;2023-04-24T05:42:24;99799.53;;;14.09;65.63
75697;BME280;64312;44.738;20.612;2023-04-24T05:44:50;99809.47;;;13.97;66.10
75697;BME280;64312;44.738;20.612;2023-04-24T05:47:16;99812.06;;;13.92;67.18
75697;BME280;64312;44.738;20.612;2023-04-24T05:49:42;99768.69;;;13.62;68.09
75697;BME280;64312;44.738;20.612;2023-04-24T05:52:07;99500.72;;;12.30;68.58
75697;BME280;64312;44.738;20.612;2023-04-24T05:54:35;99558.56;;;12.78;69.68
75697;BME280;64312;44.738;20.612;2023-04-24T05:57:01;99726.31;;;13.74;69.50
75697;BME280;64312;44.738;20.612;2023-04-24T05:59:53;99717.69;;;13.47;69.68
75697;BME280;64312;44.738;20.612;2023-04-24T06:02:20;99772.38;;;13.68;70.05
75697;BME280;64312;44.738;20.612;2023-04-24T06:04:45;99788.66;;;13.61;70.84
75697;BME280;64312;44.738;20.612;2023-04-24T06:07:11;99738.50;;;13.47;71.38
75697;BME280;64312;44.738;20.612;2023-04-24T06:09:38;99732.84;;;13.48;72.03
75697;BME280;64312;44.738;20.612;2023-04-24T06:12:04;99728.28;;;13.49;71.74
75697;BME280;64312;44.738;20.612;2023-04-24T06:14:45;99750.34;;;13.64;72.17
75697;BME280;64312;44.738;20.612;2023-04-24T06:17:18;99740.66;;;13.57;72.02
75697;BME280;64312;44.738;20.612;2023-04-24T06:19:45;99735.84;;;13.77;72.66
75697;BME280;64312;44.738;20.612;2023-04-24T06:22:10;99700.59;;;13.65;72.62
75697;BME280;64312;44.738;20.612;2023-04-24T06:24:36;99740.13;;;14.15;71.77
75697;BME280;64312;44.738;20.612;2023-04-24T06:27:02;99727.94;;;14.24;71.00
75697;BME280;64312;44.738;20.612;2023-04-24T06:29:28;99754.91;;;14.60;70.27
75697;BME280;64312;44.738;20.612;2023-04-24T06:31:53;99594.28;;;13.65;69.94
75697;BME280;64312;44.738;20.612;2023-04-24T06:34:19;99751.47;;;14.53;69.89
75697;BME280;64312;44.738;20.612;2023-04-24T06:36:46;99732.19;;;14.50;69.79
75697;BME280;64312;44.738;20.612;2023-04-24T06:39:12;99748.91;;;14.58;70.03
75697;BME280;64312;44.738;20.612;2023-04-24T06:41:37;99635.06;;;14.23;69.23
75697;BME280;64312;44.738;20.612;2023-04-24T06:44:03;99744.03;;;15.02;68.67
75697;BME280;64312;44.738;20.612;2023-04-24T06:46:29;99539.91;;;13.96;68.52
75697;BME280;64312;44.738;20.612;2023-04-24T06:48:55;99702.06;;;15.05;68.34
75697;BME280;64312;44.738;20.612;2023-04-24T06:51:23;99774.78;;;15.43;68.05
75697;BME280;64312;44.738;20.612;2023-04-24T06:53:49;99764.50;;;15.45;67.30
75697;BME280;64312;44.738;20.612;2023-04-24T06:56:15;99728.47;;;15.09;66.12
75697;BME280;64312;44.738;20.612;2023-04-24T06:58:41;99561.50;;;14.26;66.04
75697;BME280;64312;44.738;20.612;2023-04-24T07:01:07;99724.31;;;15.30;65.78
75697;BME280;64312;44.738;20.612;2023-04-24T07:03:32;99756.06;;;15.65;64.86
75697;BME280;64312;44.738;20.612;2023-04-24T07:05:58;99747.28;;;15.75;64.70
75697;BME280;64312;44.738;20.612;2023-04-24T07:08:24;99725.69;;;15.80;64.41
75697;BME280;64312;44.738;20.612;2023-04-24T07:10:50;99729.16;;;16.04;63.73
75697;BME280;64312;44.738;20.612;2023-04-24T07:13:16;99712.50;;;16.00;63.63
75697;BME280;64312;44.738;20.612;2023-04-24T07:15:43;99727.34;;;16.09;63.52
75697;BME280;64312;44.738;20.612;2023-04-24T07:18:09;99727.88;;;15.94;63.77
75697;BME280;64312;44.738;20.612;2023-04-24T07:20:34;99749.28;;;16.19;64.85
75697;BME280;64312;44.738;20.612;2023-04-24T07:23:00;99760.38;;;16.18;64.46
75697;BME280;64312;44.738;20.612;2023-04-24T07:25:26;99766.97;;;16.22;64.16
75697;BME280;64312;44.738;20.612;2023-04-24T07:27:52;99705.44;;;15.99;64.29
75697;BME280;64312;44.738;20.612;2023-04-24T07:30:18;99530.59;;;14.98;64.05
75697;BME280;64312;44.738;20.612;2023-04-24T07:32:44;99737.53;;;16.31;64.21
75697;BME280;64312;44.738;20.612;2023-04-24T07:35:09;99759.38;;;16.52;63.92
75697;BME280;64312;44.738;20.612;2023-04-24T07:37:36;99760.16;;;16.65;64.12
75697;BME280;64312;44.738;20.612;2023-04-24T07:40:01;99766.53;;;16.70;64.20
75697;BME280;64312;44.738;20.612;2023-04-24T07:42:28;99754.00;;;16.86;63.78
75697;BME280;64312;44.738;20.612;2023-04-24T07:44:55;99773.31;;;17.01;63.79
75697;BME280;64312;44.738;20.612;2023-04-24T07:47:21;99757.06;;;17.06;63.58
75697;BME280;64312;44.738;20.612;2023-04-24T07:49:47;99684.75;;;16.89;62.88
75697;BME280;64312;44.738;20.612;2023-04-24T07:52:13;99731.75;;;17.23;62.12
75697;BME280;64312;44.738;20.612;2023-04-24T07:54:38;99763.38;;;17.68;62.02
75697;BME280;64312;44.738;20.612;2023-04-24T07:57:04;99758.69;;;17.80;61.46
75697;BME280;64312;44.738;20.612;2023-04-24T07:59:31;99754.81;;;17.76;60.99
75697;BME280;64312;44.738;20.612;2023-04-24T08:01:58;99753.44;;;17.73;60.82
75697;BME280;64312;44.738;20.612;2023-04-24T08:04:23;99667.59;;;17.49;60.41
75697;BME280;64312;44.738;20.612;2023-04-24T08:06:49;99718.00;;;17.95;58.88
75697;BME280;64312;44.738;20.612;2023-04-24T08:09:15;99756.63;;;18.36;58.41
75697;BME280;64312;44.738;20.612;2023-04-24T08:11:41;99762.41;;;18.45;58.91
75697;BME280;64312;44.738;20.612;2023-04-24T08:14:06;99520.84;;;17.15;58.13
75697;BME280;64312;44.738;20.612;2023-04-24T08:16:32;99743.25;;;18.61;57.71
75697;BME280;64312;44.738;20.612;2023-04-24T08:18:58;99733.25;;;18.72;57.25
75697;BME280;64312;44.738;20.612;2023-04-24T08:21:24;99762.66;;;18.97;56.95
75697;BME280;64312;44.738;20.612;2023-04-24T08:23:51;99743.59;;;19.02;57.06
75697;BME280;64312;44.738;20.612;2023-04-24T08:26:17;99743.16;;;19.15;56.80
75697;BME280;64312;44.738;20.612;2023-04-24T08:28:42;99748.41;;;19.27;56.50
75697;BME280;64312;44.738;20.612;2023-04-24T08:31:08;99740.31;;;19.42;55.98
75697;BME280;64312;44.738;20.612;2023-04-24T08:33:33;99762.06;;;19.69;54.97
75697;BME280;64312;44.738;20.612;2023-04-24T08:36:03;99558.94;;;18.65;54.42
75697;BME280;64312;44.738;20.612;2023-04-24T08:38:29;99692.38;;;19.62;53.91
75697;BME280;64312;44.738;20.612;2023-04-24T08:40:57;99711.06;;;19.85;53.39
75697;BME280;64312;44.738;20.612;2023-04-24T08:43:26;99720.66;;;19.98;52.62
75697;BME280;64312;44.738;20.612;2023-04-24T08:45:54;99727.81;;;20.19;52.84
75697;BME280;64312;44.738;20.612;2023-04-24T08:48:21;99759.03;;;20.39;52.60
75697;BME280;64312;44.738;20.612;2023-04-24T08:50:52;99716.88;;;20.14;51.98
75697;BME280;64312;44.738;20.612;2023-04-24T08:53:18;99717.13;;;20.08;52.34
75697;BME280;64312;44.738;20.612;2023-04-24T08:55:47;99718.75;;;20.09;52.58
75697;BME280;64312;44.738;20.612;2023-04-24T08:58:15;99760.91;;;20.28;52.33
75697;BME280;64312;44.738;20.612;2023-04-24T09:00:41;99645.63;;;19.53;52.83
75697;BME280;64312;44.738;20.612;2023-04-24T09:03:15;99742.34;;;20.30;53.26
75697;BME280;64312;44.738;20.612;2023-04-24T09:05:46;99755.19;;;20.29;53.33
75697;BME280;64312;44.738;20.612;2023-04-24T09:08:16;99736.03;;;20.35;53.15
75697;BME280;64312;44.738;20.612;2023-04-24T09:10:44;99748.63;;;20.41;53.58
75697;BME280;64312;44.738;20.612;2023-04-24T09:13:10;99739.88;;;20.39;52.84
75697;BME280;64312;44.738;20.612;2023-04-24T09:15:39;99703.44;;;20.02;52.63
75697;BME280;64312;44.738;20.612;2023-04-24T09:18:05;99728.91;;;20.28;52.76
75697;BME280;64312;44.738;20.612;2023-04-24T09:20:32;99718.56;;;20.41;51.88
75697;BME280;64312;44.738;20.612;2023-04-24T09:22:58;99714.47;;;20.43;51.55
75697;BME280;64312;44.738;20.612;2023-04-24T09:25:34;99669.00;;;19.96;51.73
75697;BME280;64312;44.738;20.612;2023-04-24T09:28:03;99715.88;;;20.46;52.06
75697;BME280;64312;44.738;20.612;2023-04-24T09:30:29;99721.06;;;20.47;51.82
75697;BME280;64312;44.738;20.612;2023-04-24T09:33:14;99695.59;;;20.32;51.21
75697;BME280;64312;44.738;20.612;2023-04-24T09:35:42;99706.22;;;20.28;51.03
75697;BME280;64312;44.738;20.612;2023-04-24T09:38:08;99710.06;;;20.27;51.36
75697;BME280;64312;44.738;20.612;2023-04-24T09:40:35;99704.06;;;20.25;50.80
75697;BME280;64312;44.738;20.612;2023-04-24T09:43:01;99679.44;;;20.10;50.78
75697;BME280;64312;44.738;20.612;2023-04-24T09:45:34;99693.38;;;20.18;51.15
75697;BME280;64312;44.738;20.612;2023-04-24T09:48:01;99702.69;;;20.17;52.03
75697;BME280;64312;44.738;20.612;2023-04-24T09:50:26;99689.81;;;20.08;52.75
75697;BME280;64312;44.738;20.612;2023-04-24T09:52:59;99670.09;;;19.95;53.21
75697;BME280;64312;44.738;20.612;2023-04-24T09:55:27;99720.97;;;20.07;53.93
75697;BME280;64312;44.738;20.612;2023-04-24T10:00:30;99724.41;;;19.82;55.39
75697;BME280;64312;44.738;20.612;2023-04-24T10:02:58;99728.38;;;19.54;56.25
75697;BME280;64312;44.738;20.612;2023-04-24T10:05:31;99735.75;;;19.53;56.90
75697;BME280;64312;44.738;20.612;2023-04-24T10:08:04;99736.72;;;19.37;56.21
75697;BME280;64312;44.738;20.612;2023-04-24T10:10:37;99716.09;;;19.09;56.39
75697;BME280;64312;44.738;20.612;2023-04-24T10:13:04;99748.66;;;19.20;56.41
75697;BME280;64312;44.738;20.612;2023-04-24T10:15:30;99708.84;;;18.87;56.51
75697;BME280;64312;44.738;20.612;2023-04-24T10:17:58;99748.38;;;19.22;56.64
75697;BME280;64312;44.738;20.612;2023-04-24T10:20:26;99691.31;;;18.78;56.86
75697;BME280;64312;44.738;20.612;2023-04-24T10:22:54;99732.97;;;19.06;56.81
75697;BME280;64312;44.738;20.612;2023-04-24T10:25:24;99681.72;;;18.71;57.20
75697;BME280;64312;44.738;20.612;2023-04-24T10:27:52;99426.28;;;16.95;57.19
75697;BME280;64312;44.738;20.612;2023-04-24T10:30:19;99725.81;;;18.94;58.47
75697;BME280;64312;44.738;20.612;2023-04-24T10:32:45;99711.00;;;18.85;59.90
75697;BME280;64312;44.738;20.612;2023-04-24T10:35:15;99737.00;;;18.98;60.62
75697;BME280;64312;44.738;20.612;2023-04-24T10:38:04;99712.56;;;18.76;60.77
75697;BME280;64312;44.738;20.612;2023-04-24T10:40:32;99641.34;;;18.35;61.67
75697;BME280;64312;44.738;20.612;2023-04-24T10:42:59;99701.53;;;18.66;62.22
75697;BME280;64312;44.738;20.612;2023-04-24T10:45:25;99333.72;;;16.14;62.48
75697;BME280;64312;44.738;20.612;2023-04-24T10:47:53;99685.44;;;18.64;62.98
75697;BME280;64312;44.738;20.612;2023-04-24T10:50:19;99602.13;;;18.09;63.16
75697;BME280;64312;44.738;20.612;2023-04-24T10:52:48;99703.34;;;18.82;63.09
75697;BME280;64312;44.738;20.612;2023-04-24T10:55:41;99658.25;;;18.70;63.42
75697;BME280;64312;44.738;20.612;2023-04-24T10:58:07;99502.97;;;18.05;63.09
75697;BME280;64312;44.738;20.612;2023-04-24T11:00:32;99577.44;;;18.58;62.41
75697;BME280;64312;44.738;20.612;2023-04-24T11:02:58;99680.66;;;19.66;62.63
75697;BME280;64312;44.738;20.612;2023-04-24T11:08:22;99674.91;;;19.63;62.29
75697;BME280;64312;44.738;20.612;2023-04-24T11:11:02;99681.63;;;20.13;61.17
75697;BME280;64312;44.738;20.612;2023-04-24T11:18:50;99684.97;;;20.71;60.08
75697;BME280;64312;44.738;20.612;2023-04-24T11:21:18;99639.25;;;20.15;59.38
75697;BME280;64312;44.738;20.612;2023-04-24T11:23:47;99523.31;;;19.50;59.09
75697;BME280;64312;44.738;20.612;2023-04-24T11:26:23;99651.31;;;20.29;59.25
75697;BME280;64312;44.738;20.612;2023-04-24T11:29:06;99652.13;;;20.30;58.75
75697;BME280;64312;44.738;20.612;2023-04-24T11:31:40;99645.56;;;20.41;59.31
75697;BME280;64312;44.738;20.612;2023-04-24T11:34:14;99634.94;;;20.45;58.96
75697;BME280;64312;44.738;20.612;2023-04-24T11:36:46;99596.91;;;20.33;59.07
75697;BME280;64312;44.738;20.612;2023-04-24T11:39:13;99577.50;;;20.35;58.49
75697;BME280;64312;44.738;20.612;2023-04-24T11:41:39;99563.59;;;20.16;58.41
75697;BME280;64312;44.738;20.612;2023-04-24T11:44:09;99563.28;;;20.33;58.29
75697;BME280;64312;44.738;20.612;2023-04-24T11:46:35;99559.19;;;20.45;57.36
75697;BME280;64312;44.738;20.612;2023-04-24T11:49:03;99583.44;;;20.93;56.31
75697;BME280;64312;44.738;20.612;2023-04-24T11:51:28;99312.59;;;19.58;56.09
75697;BME280;64312;44.738;20.612;2023-04-24T11:53:55;99418.34;;;20.58;55.34
75697;BME280;64312;44.738;20.612;2023-04-24T11:56:22;99516.16;;;21.51;54.41
75697;BME280;64312;44.738;20.612;2023-04-24T11:58:48;99473.06;;;21.18;54.70
75697;BME280;64312;44.738;20.612;2023-04-24T12:01:13;99590.59;;;22.42;53.73
75697;BME280;64312;44.738;20.612;2023-04-24T12:03:40;99564.81;;;22.09;53.53
75697;BME280;64312;44.738;20.612;2023-04-24T12:06:10;99596.31;;;22.11;53.96
75697;BME280;64312;44.738;20.612;2023-04-24T12:08:36;99608.84;;;21.78;54.33
75697;BME280;64312;44.738;20.612;2023-04-24T12:11:04;99503.34;;;20.77;54.71
75697;BME280;64312;44.738;20.612;2023-04-24T12:13:30;99607.47;;;21.11;55.37
75697;BME280;64312;44.738;20.612;2023-04-24T12:16:01;99601.00;;;20.87;55.76
75697;BME280;64312;44.738;20.612;2023-04-24T12:18:27;99360.59;;;19.18;56.21
75697;BME280;64312;44.738;20.612;2023-04-24T12:20:52;99619.34;;;20.50;57.13
75697;BME280;64312;44.738;20.612;2023-04-24T12:23:34;99458.63;;;19.45;56.79
75697;BME280;64312;44.738;20.612;2023-04-24T12:26:04;99596.91;;;20.28;57.21
75697;BME280;64312;44.738;20.612;2023-04-24T12:28:37;99561.09;;;20.09;57.66
75697;BME280;64312;44.738;20.612;2023-04-24T12:31:04;99571.50;;;20.17;57.93
75697;BME280;64312;44.738;20.612;2023-04-24T12:33:33;99581.88;;;20.15;58.09
75697;BME280;64312;44.738;20.612;2023-04-24T12:36:00;99554.00;;;19.98;57.89
75697;BME280;64312;44.738;20.612;2023-04-24T12:38:27;99319.81;;;18.46;57.88
75697;BME280;64312;44.738;20.612;2023-04-24T12:41:08;99570.13;;;19.99;58.39
75697;BME280;64312;44.738;20.612;2023-04-24T12:43:34;99548.78;;;19.81;58.54
75697;BME280;64312;44.738;20.612;2023-04-24T12:46:00;99474.13;;;19.30;59.15
75697;BME280;64312;44.738;20.612;2023-04-24T12:48:27;99546.88;;;19.82;58.94
75697;BME280;64312;44.738;20.612;2023-04-24T12:50:53;99559.72;;;20.01;58.05
75697;BME280;64312;44.738;20.612;2023-04-24T12:53:20;99534.59;;;20.45;56.42
75697;BME280;64312;44.738;20.612;2023-04-24T12:55:45;99498.97;;;20.71;54.80
75697;BME280;64312;44.738;20.612;2023-04-24T12:58:13;99394.84;;;20.52;54.13
75697;BME280;64312;44.738;20.612;2023-04-24T13:00:38;99454.19;;;21.11;53.94
75697;BME280;64312;44.738;20.612;2023-04-24T13:03:04;99539.22;;;21.84;53.36
75697;BME280;64312;44.738;20.612;2023-04-24T13:05:30;99492.47;;;21.71;52.94